SFO weather

San Francisco International Airport
San Francisco, California, United States

Public forecast

Using degrees Fahrenheit for public forecast. Weather courtesy of forecast.io.

Current aviation weather report (METAR) for San Francisco International Airport

Retrieved 2020/01/23 09:56 UTC (41 minutes ago):

KSFO 230956Z 00000KT 10SM CLR 09/07 A3025 RMK AO2 SLP243 T00890067

Aviation forecast (TAF) for San Francisco International Airport

Retrieved 2020/01/23 06:42 UTC (4 hours ago):

TAF KSFO 230540Z 2306/2412 VRB04KT P6SM FEW010 SCT200 FM231300 04003KT 5SM BR SCT010 TEMPO 2313/2317 1SM BR BKN006 FM231900 06005KT 6SM HZ FEW010 BKN120 FM232100 04005KT P6SM FEW015 BKN120 FM240100 32005KT P6SM FEW010 SCT120 FM240800 28004KT 6SM BR SCT006